createdAt,value
2019-03-22T00:01:31.676Z,74.42
2019-03-22T00:04:02.450Z,74.30
2019-03-22T00:06:33.160Z,74.28
2019-03-22T00:09:05.116Z,74.36
2019-03-22T00:11:35.803Z,74.47
2019-03-22T00:14:06.502Z,74.35
2019-03-22T00:16:37.192Z,74.61
2019-03-22T00:19:07.902Z,74.58
2019-03-22T00:21:39.534Z,74.90
2019-03-22T00:24:12.206Z,76.18
2019-03-22T00:26:44.013Z,75.82
2019-03-22T00:29:14.759Z,75.64
2019-03-22T00:31:45.512Z,75.20
2019-03-22T00:34:16.306Z,75.19
2019-03-22T00:36:47.038Z,75.59
2019-03-22T00:39:17.740Z,75.14
2019-03-22T00:41:48.427Z,75.27
2019-03-22T00:44:19.186Z,75.20
2019-03-22T00:46:49.899Z,75.26
2019-03-22T00:49:20.632Z,75.37
2019-03-22T00:51:51.317Z,75.17
2019-03-22T00:54:22.024Z,75.02
2019-03-22T00:56:52.676Z,74.90
2019-03-22T00:59:23.449Z,75.10
2019-03-22T01:01:54.302Z,74.95
2019-03-22T01:04:25.010Z,74.95
2019-03-22T01:06:55.734Z,74.96
2019-03-22T01:09:26.425Z,74.84
2019-03-22T01:11:57.207Z,75.42
2019-03-22T01:14:28.957Z,75.44
2019-03-22T01:16:59.759Z,75.48
2019-03-22T01:19:30.631Z,75.87
2019-03-22T01:22:01.328Z,75.55
2019-03-22T01:24:32.117Z,75.40
2019-03-22T01:27:02.787Z,75.21
2019-03-22T01:29:33.514Z,76.35
2019-03-22T01:32:04.168Z,77.03
2019-03-22T01:34:34.945Z,76.56
2019-03-22T01:37:05.647Z,75.85
2019-03-22T01:39:36.346Z,75.38
2019-03-22T01:42:07.049Z,75.69
2019-03-22T01:44:37.726Z,75.70
2019-03-22T01:47:09.919Z,75.40
2019-03-22T01:49:40.670Z,75.18
2019-03-22T01:52:11.319Z,75.07
2019-03-22T01:54:42.079Z,75.08
2019-03-22T01:57:12.707Z,75.75
2019-03-22T01:59:43.443Z,75.56
2019-03-22T02:02:14.233Z,76.06
2019-03-22T02:04:45.040Z,76.78
2019-03-22T02:07:15.715Z,76.43
2019-03-22T02:09:46.509Z,76.44
2019-03-22T02:12:17.281Z,76.03
2019-03-22T02:14:48.062Z,75.64
2019-03-22T02:17:18.791Z,76.26
2019-03-22T02:19:49.789Z,76.05
2019-03-22T02:22:20.469Z,75.63
2019-03-22T02:24:52.183Z,75.30
2019-03-22T02:27:22.945Z,75.11
2019-03-22T02:29:53.679Z,75.19
2019-03-22T02:32:24.508Z,75.47
2019-03-22T02:34:55.220Z,75.79
2019-03-22T02:37:25.896Z,75.90
2019-03-22T02:39:56.594Z,76.34
2019-03-22T02:42:27.254Z,76.18
2019-03-22T02:44:59.285Z,76.74
2019-03-22T02:47:29.922Z,77.95
2019-03-22T02:50:11.664Z,77.73
2019-03-22T02:52:33.083Z,77.07
2019-03-22T02:55:03.820Z,77.09
2019-03-22T02:57:34.455Z,76.99
2019-03-22T03:00:06.844Z,76.60
2019-03-22T03:02:37.621Z,76.52
2019-03-22T03:05:08.895Z,76.33
2019-03-22T03:07:39.606Z,76.32
2019-03-22T03:10:11.399Z,76.02
2019-03-22T03:12:42.061Z,76.14
2019-03-22T03:15:14.244Z,76.27
2019-03-22T03:17:44.894Z,76.48
2019-03-22T03:20:16.423Z,76.05
2019-03-22T03:22:47.497Z,75.95
2019-03-22T03:25:18.431Z,75.95
2019-03-22T03:27:49.138Z,76.04
2019-03-22T03:30:20.464Z,75.96
2019-03-22T03:32:51.250Z,76.09
2019-03-22T03:35:22.002Z,76.24
2019-03-22T03:37:55.527Z,76.23
2019-03-22T03:40:26.223Z,76.00
2019-03-22T03:42:57.210Z,75.98
2019-03-22T03:45:34.228Z,76.04
2019-03-22T03:48:06.242Z,76.16
2019-03-22T03:50:37.059Z,76.23
2019-03-22T03:53:08.132Z,76.19
2019-03-22T03:55:38.986Z,75.91
2019-03-22T03:58:09.700Z,78.27
2019-03-22T04:00:40.558Z,77.86
2019-03-22T04:03:11.269Z,77.64
2019-03-22T04:05:44.861Z,78.11
2019-03-22T04:08:17.708Z,78.84
2019-03-22T04:10:48.440Z,78.55
2019-03-22T04:13:19.112Z,79.22
2019-03-22T04:15:49.932Z,78.81
2019-03-22T04:18:20.655Z,79.40
2019-03-22T04:20:52.661Z,79.32
2019-03-22T04:23:23.376Z,78.97
2019-03-22T04:25:54.174Z,79.94
2019-03-22T04:28:24.995Z,80.96
2019-03-22T04:30:56.677Z,80.49
2019-03-22T04:33:27.373Z,80.81
2019-03-22T04:35:59.860Z,80.81
2019-03-22T04:38:32.109Z,80.86
2019-03-22T04:41:02.964Z,80.95
2019-03-22T04:43:33.719Z,81.01
2019-03-22T04:46:05.363Z,81.52
2019-03-22T04:48:37.758Z,81.22
2019-03-22T04:51:10.202Z,81.46
2019-03-22T04:53:54.770Z,80.68
2019-03-22T04:56:34.738Z,80.86
2019-03-22T04:59:18.907Z,80.54
2019-03-22T05:01:46.022Z,81.05
2019-03-22T05:04:17.821Z,80.50
2019-03-22T05:06:50.342Z,81.64
2019-03-22T05:09:28.079Z,82.01
2019-03-22T05:12:01.144Z,82.08
2019-03-22T05:14:34.165Z,80.73
2019-03-22T05:17:08.039Z,81.20
2019-03-22T05:19:41.570Z,81.02
2019-03-22T05:22:14.363Z,81.10
2019-03-22T05:24:51.081Z,81.30
2019-03-22T05:27:23.165Z,82.84
2019-03-22T05:29:56.609Z,82.48
2019-03-22T05:32:29.667Z,81.69
2019-03-22T05:35:07.826Z,81.37
2019-03-22T05:37:40.422Z,81.90
2019-03-22T05:40:11.150Z,81.62
2019-03-22T05:42:45.417Z,81.67
2019-03-22T05:45:16.125Z,81.94
2019-03-22T05:47:46.831Z,82.13
2019-03-22T05:50:17.661Z,82.01
2019-03-22T05:52:48.389Z,82.15
2019-03-22T05:55:20.733Z,82.13
2019-03-22T05:57:51.497Z,82.80
2019-03-22T06:00:22.166Z,82.17
2019-03-22T06:02:52.912Z,81.53
2019-03-22T06:05:23.753Z,80.99
2019-03-22T06:07:54.559Z,81.28
2019-03-22T06:10:25.914Z,81.11
2019-03-22T06:12:56.892Z,80.44
2019-03-22T06:15:27.821Z,81.12
2019-03-22T06:17:58.911Z,80.63
2019-03-22T06:20:29.680Z,80.92
2019-03-22T06:23:01.121Z,80.34
2019-03-22T06:25:31.899Z,80.55
2019-03-22T06:28:02.711Z,81.34
2019-03-22T06:30:33.611Z,80.35
2019-03-22T06:33:04.328Z,81.30
2019-03-22T06:35:35.116Z,81.70
2019-03-22T06:38:06.082Z,81.48
2019-03-22T06:40:36.788Z,81.55
2019-03-22T06:43:07.571Z,80.91
2019-03-22T06:45:38.294Z,80.54
2019-03-22T06:48:09.189Z,80.30
2019-03-22T06:50:39.960Z,80.20
2019-03-22T06:53:10.736Z,79.74
2019-03-22T06:55:41.515Z,79.87
2019-03-22T06:58:13.819Z,79.97
2019-03-22T07:00:44.698Z,79.23
2019-03-22T07:03:15.640Z,78.71
2019-03-22T07:05:46.468Z,78.53
2019-03-22T07:08:17.230Z,78.56
2019-03-22T07:10:48.038Z,78.89
2019-03-22T07:13:19.060Z,78.59
2019-03-22T07:15:50.043Z,78.00
2019-03-22T07:18:20.805Z,77.65
2019-03-22T07:20:51.538Z,78.33
2019-03-22T07:23:22.419Z,78.85
2019-03-22T07:25:53.134Z,80.17
2019-03-22T07:28:23.863Z,79.79
2019-03-22T07:30:54.798Z,79.34
2019-03-22T07:33:25.609Z,78.31
2019-03-22T07:35:56.391Z,77.54
2019-03-22T07:38:27.599Z,78.03
2019-03-22T07:40:58.585Z,79.49
2019-03-22T07:43:29.436Z,79.91
2019-03-22T07:46:00.406Z,79.22
2019-03-22T07:48:31.264Z,79.10
2019-03-22T07:51:03.152Z,77.92
2019-03-22T07:53:33.908Z,77.40
2019-03-22T07:56:04.791Z,76.80
2019-03-22T07:58:35.606Z,76.18
2019-03-22T08:01:06.468Z,75.52
2019-03-22T08:03:37.230Z,75.16
2019-03-22T08:06:08.010Z,75.83
2019-03-22T08:08:38.725Z,75.80
2019-03-22T08:11:09.392Z,76.56
2019-03-22T08:13:40.128Z,77.78
2019-03-22T08:16:10.827Z,78.28
2019-03-22T08:18:41.663Z,77.58
2019-03-22T08:21:12.390Z,78.14
2019-03-22T08:23:43.130Z,77.82
2019-03-22T08:26:13.849Z,77.03
2019-03-22T08:28:44.728Z,78.65
2019-03-22T08:31:15.512Z,78.21
2019-03-22T08:33:46.293Z,77.60
2019-03-22T08:36:16.999Z,77.43
2019-03-22T08:38:47.677Z,77.84
2019-03-22T08:41:19.378Z,76.96
2019-03-22T08:43:50.500Z,76.84
2019-03-22T08:46:21.803Z,77.62
2019-03-22T08:48:54.108Z,77.94
2019-03-22T08:51:35.071Z,78.04
2019-03-22T08:54:06.015Z,78.31
2019-03-22T08:56:36.624Z,76.97
2019-03-22T08:59:08.829Z,77.15
2019-03-22T09:01:41.652Z,76.25
2019-03-22T09:04:14.235Z,76.02
2019-03-22T09:06:46.180Z,75.75
2019-03-22T09:09:19.848Z,75.23
2019-03-22T09:12:01.968Z,75.06
2019-03-22T09:15:15.908Z,75.75
2019-03-22T09:17:53.483Z,74.81
2019-03-22T09:20:28.312Z,75.36
2019-03-22T09:23:04.411Z,76.35
2019-03-22T09:25:38.556Z,74.90
2019-03-22T09:28:11.794Z,74.61
2019-03-22T09:30:43.182Z,74.40
2019-03-22T09:33:15.659Z,75.32
2019-03-22T09:35:47.367Z,73.82
2019-03-22T09:38:18.562Z,73.11
2019-03-22T09:40:49.507Z,73.42
2019-03-22T09:43:22.687Z,73.43
2019-03-22T09:45:56.156Z,72.53
2019-03-22T09:48:29.216Z,72.38
2019-03-22T09:51:01.309Z,71.85
2019-03-22T09:53:33.981Z,72.83
2019-03-22T09:56:06.057Z,71.73
2019-03-22T09:58:38.331Z,71.80
2019-03-22T10:02:02.488Z,71.10
2019-03-22T10:04:48.940Z,71.36
2019-03-22T10:07:26.904Z,71.36
2019-03-22T10:10:56.067Z,71.64
2019-03-22T10:13:52.716Z,70.49
2019-03-22T10:16:57.000Z,71.02
2019-03-22T10:19:42.140Z,70.51
2019-03-22T10:22:15.651Z,70.60
2019-03-22T10:24:46.629Z,70.44
2019-03-22T10:27:21.966Z,69.99
2019-03-22T10:29:52.867Z,69.58
2019-03-22T10:32:24.070Z,70.56
2019-03-22T10:34:55.216Z,69.04
2019-03-22T10:37:26.174Z,68.34
2019-03-22T10:39:57.066Z,68.06
2019-03-22T10:42:27.938Z,67.66
2019-03-22T10:44:58.722Z,68.40
2019-03-22T10:47:29.946Z,67.16
2019-03-22T10:50:00.799Z,66.92
2019-03-22T10:52:31.631Z,68.72
2019-03-22T10:55:17.210Z,67.73
2019-03-22T10:57:34.915Z,66.93
2019-03-22T11:00:06.932Z,66.41
2019-03-22T11:02:38.455Z,66.92
2019-03-22T11:05:10.107Z,66.02
2019-03-22T11:07:40.923Z,65.63
2019-03-22T11:10:13.698Z,65.95
2019-03-22T11:12:44.445Z,64.89
2019-03-22T11:15:15.941Z,64.94
2019-03-22T11:17:46.733Z,64.00
2019-03-22T11:20:17.731Z,63.33
2019-03-22T11:22:48.999Z,62.66
2019-03-22T11:25:20.591Z,64.66
2019-03-22T11:27:51.705Z,64.06
2019-03-22T11:30:22.618Z,63.73
2019-03-22T11:32:59.329Z,63.73
2019-03-22T11:35:30.813Z,63.35
2019-03-22T11:38:02.532Z,63.18
2019-03-22T11:40:37.059Z,62.77
2019-03-22T11:43:09.061Z,63.25
2019-03-22T11:45:39.961Z,62.21
2019-03-22T11:48:11.991Z,62.84
2019-03-22T11:53:21.923Z,62.34
2019-03-22T11:55:52.677Z,61.82
2019-03-22T11:58:23.553Z,61.30
2019-03-22T12:00:54.332Z,60.99
2019-03-22T12:03:25.110Z,61.07
2019-03-22T12:05:55.851Z,61.00
2019-03-22T12:08:26.555Z,61.26
2019-03-22T12:10:57.520Z,60.85
2019-03-22T12:13:28.208Z,61.19
2019-03-22T12:15:58.889Z,61.19
2019-03-22T12:18:29.571Z,60.54
2019-03-22T12:21:00.742Z,60.17
2019-03-22T12:23:31.392Z,59.79
2019-03-22T12:26:02.245Z,59.28
2019-03-22T12:28:33.946Z,59.42
2019-03-22T12:31:04.704Z,59.22
2019-03-22T12:33:35.415Z,58.03
2019-03-22T12:36:06.115Z,57.84
2019-03-22T12:38:36.778Z,57.60
2019-03-22T12:41:07.535Z,58.39
2019-03-22T12:43:39.606Z,57.94
2019-03-22T12:46:10.515Z,58.26
2019-03-22T12:48:41.281Z,58.26
2019-03-22T12:51:12.113Z,57.39
2019-03-22T12:53:43.055Z,57.52
2019-03-22T12:56:13.791Z,58.21
2019-03-22T12:58:44.472Z,56.80
2019-03-22T13:01:15.207Z,57.45
2019-03-22T13:03:46.091Z,56.95
2019-03-22T13:06:17.395Z,57.18
2019-03-22T13:08:55.256Z,57.22
2019-03-22T13:11:26.012Z,57.32
2019-03-22T13:13:56.828Z,56.25
2019-03-22T13:16:27.554Z,56.95
2019-03-22T13:19:01.273Z,57.00
2019-03-22T13:21:32.046Z,58.39
2019-03-22T13:24:02.907Z,57.38
2019-03-22T13:26:34.439Z,56.87
2019-03-22T13:29:05.190Z,56.95
2019-03-22T13:31:36.036Z,57.22
2019-03-22T13:34:07.179Z,56.78
2019-03-22T13:36:38.550Z,56.58
2019-03-22T13:39:19.912Z,56.18
2019-03-22T13:41:50.672Z,55.72
2019-03-22T13:44:21.456Z,55.89
2019-03-22T13:46:52.398Z,55.90
2019-03-22T13:49:23.098Z,56.13
2019-03-22T13:51:56.582Z,55.37
2019-03-22T13:54:28.027Z,55.47
2019-03-22T13:56:59.093Z,55.28
2019-03-22T13:59:32.260Z,55.51
2019-03-22T14:02:03.145Z,56.03
2019-03-22T14:04:34.039Z,55.74
2019-03-22T14:07:04.920Z,55.79
2019-03-22T14:09:35.762Z,55.53
2019-03-22T14:12:06.600Z,55.76
2019-03-22T14:14:37.402Z,55.83
2019-03-22T14:17:10.686Z,55.36
2019-03-22T14:19:41.830Z,55.42
2019-03-22T14:22:12.727Z,55.56
2019-03-22T14:24:43.440Z,55.46
2019-03-22T14:27:14.203Z,55.93
2019-03-22T14:29:45.906Z,55.66
2019-03-22T14:32:16.617Z,56.33
2019-03-22T14:34:47.335Z,55.99
2019-03-22T14:37:18.201Z,55.74
2019-03-22T14:39:49.028Z,55.06
2019-03-22T14:42:19.774Z,55.73
2019-03-22T14:44:50.586Z,54.35
2019-03-22T14:47:21.328Z,55.14
2019-03-22T14:49:52.079Z,54.55
2019-03-22T14:52:22.825Z,55.38
2019-03-22T14:54:53.655Z,55.16
2019-03-22T14:57:24.326Z,55.37
2019-03-22T14:59:58.770Z,55.39
2019-03-22T15:02:27.461Z,55.08
2019-03-22T15:04:58.207Z,55.18
2019-03-22T15:07:28.991Z,55.25
2019-03-22T15:09:59.727Z,55.66
2019-03-22T15:12:30.528Z,55.20
2019-03-22T15:15:06.324Z,55.43
2019-03-22T15:18:08.091Z,55.30
2019-03-22T15:20:57.833Z,54.55
2019-03-22T15:23:46.255Z,55.81
2019-03-22T15:26:47.851Z,55.80
2019-03-22T15:29:32.897Z,54.71
2019-03-22T15:32:34.783Z,54.37
2019-03-22T15:35:19.217Z,55.16
2019-03-22T15:38:08.963Z,55.30
2019-03-22T15:40:39.674Z,55.93
2019-03-22T15:43:10.465Z,55.45
2019-03-22T15:45:41.219Z,55.48
2019-03-22T15:48:11.975Z,54.56
2019-03-22T15:50:45.099Z,54.57
2019-03-22T15:53:15.813Z,55.52
2019-03-22T15:55:46.497Z,55.21
2019-03-22T15:58:17.251Z,55.49
2019-03-22T16:00:47.957Z,55.45
2019-03-22T16:03:18.784Z,55.47
2019-03-22T16:05:49.503Z,55.20
2019-03-22T16:08:20.294Z,56.27
2019-03-22T16:10:50.971Z,56.05
2019-03-22T16:13:21.769Z,55.37
2019-03-22T16:15:52.514Z,54.97
2019-03-22T16:18:23.349Z,54.36
2019-03-22T16:21:00.282Z,54.32
2019-03-22T16:23:33.300Z,54.83
2019-03-22T16:26:03.869Z,54.25
2019-03-22T16:28:36.317Z,54.46
2019-03-22T16:31:07.356Z,54.26
2019-03-22T16:33:39.663Z,54.34
2019-03-22T16:36:10.445Z,54.30
2019-03-22T16:38:42.610Z,54.33
2019-03-22T16:41:16.690Z,54.62
2019-03-22T16:43:50.397Z,55.74
2019-03-22T16:46:22.778Z,55.80
2019-03-22T16:48:53.522Z,56.43
2019-03-22T16:51:24.188Z,56.44
2019-03-22T16:53:54.919Z,56.47
2019-03-22T16:56:25.594Z,56.40
2019-03-22T16:58:58.111Z,57.35
2019-03-22T17:01:31.135Z,58.07
2019-03-22T17:04:04.734Z,57.92
2019-03-22T17:06:34.300Z,59.17
2019-03-22T17:09:06.235Z,59.29
2019-03-22T17:11:37.049Z,59.94
2019-03-22T17:14:07.763Z,60.56
2019-03-22T17:16:41.518Z,61.01
2019-03-22T17:19:12.281Z,61.75
2019-03-22T17:21:42.952Z,62.46
2019-03-22T17:24:16.703Z,62.56
2019-03-22T17:26:50.894Z,63.17
2019-03-22T17:29:22.078Z,63.64
2019-03-22T17:31:52.836Z,64.34
2019-03-22T17:34:24.038Z,64.97
2019-03-22T17:36:55.160Z,65.69
2019-03-22T17:39:30.370Z,66.07
2019-03-22T17:42:02.219Z,65.91
2019-03-22T17:44:36.136Z,66.42
2019-03-22T17:47:07.600Z,66.86
2019-03-22T17:49:47.598Z,67.10
2019-03-22T17:52:11.348Z,67.15
2019-03-22T17:54:43.238Z,67.65
2019-03-22T17:57:18.847Z,68.01
2019-03-22T17:59:47.583Z,68.09
2019-03-22T18:02:18.487Z,68.49
2019-03-22T18:04:51.653Z,68.71
2019-03-22T18:07:27.329Z,68.97
2019-03-22T18:09:58.039Z,69.33
2019-03-22T18:12:28.695Z,69.77
2019-03-22T18:14:59.455Z,69.99
2019-03-22T18:17:30.388Z,70.36
2019-03-22T18:20:01.765Z,70.24
2019-03-22T18:22:32.705Z,71.08
2019-03-22T18:25:03.366Z,71.49
2019-03-22T18:27:35.510Z,71.10
2019-03-22T18:30:10.624Z,71.17
2019-03-22T18:32:41.467Z,71.49
2019-03-22T18:35:13.783Z,71.21
2019-03-22T18:37:44.694Z,71.55
2019-03-22T18:40:15.521Z,71.42
2019-03-22T18:42:46.351Z,71.44
2019-03-22T18:45:17.346Z,71.19
2019-03-22T18:47:48.017Z,71.23
2019-03-22T18:50:18.656Z,71.34
2019-03-22T18:52:49.553Z,71.45
2019-03-22T18:55:21.911Z,70.83
2019-03-22T18:57:52.844Z,70.89
2019-03-22T19:00:23.881Z,70.75
2019-03-22T19:02:54.676Z,71.07
2019-03-22T19:05:25.376Z,71.02
2019-03-22T19:07:56.287Z,71.01
2019-03-22T19:10:29.063Z,71.21
2019-03-22T19:12:59.873Z,71.07
2019-03-22T19:15:30.711Z,71.21
2019-03-22T19:18:02.099Z,71.11
2019-03-22T19:20:37.024Z,71.20
2019-03-22T19:23:07.708Z,71.45
2019-03-22T19:25:38.320Z,71.57
2019-03-22T19:28:10.022Z,71.74
2019-03-22T19:30:43.498Z,71.87
2019-03-22T19:33:14.431Z,71.96
2019-03-22T19:35:45.099Z,71.94
2019-03-22T19:38:15.987Z,72.30
2019-03-22T19:40:47.813Z,72.69
2019-03-22T19:43:20.092Z,72.65
2019-03-22T19:45:56.147Z,72.55
2019-03-22T19:48:30.392Z,72.72
2019-03-22T19:51:01.562Z,72.61
2019-03-22T19:53:37.168Z,72.75
2019-03-22T19:56:10.151Z,73.00
2019-03-22T19:58:46.438Z,72.79
2019-03-22T20:01:17.198Z,72.87
2019-03-22T20:03:47.874Z,72.86
2019-03-22T20:06:21.597Z,73.03
2019-03-22T20:08:53.340Z,73.02
2019-03-22T20:11:24.087Z,73.15
2019-03-22T20:13:54.999Z,73.27
2019-03-22T20:16:25.697Z,73.21
2019-03-22T20:18:56.397Z,73.31
2019-03-22T20:21:27.066Z,73.37
2019-03-22T20:23:57.972Z,73.38
2019-03-22T20:26:28.661Z,73.49
2019-03-22T20:28:59.560Z,73.75
2019-03-22T20:31:32.695Z,73.66
2019-03-22T20:34:03.508Z,73.85
2019-03-22T20:36:34.318Z,74.02
2019-03-22T20:39:07.170Z,74.28
2019-03-22T20:41:39.354Z,74.30
2019-03-22T20:44:10.063Z,74.23
2019-03-22T20:46:41.130Z,74.41
2019-03-22T20:49:12.080Z,74.61
2019-03-22T20:51:42.777Z,74.70
2019-03-22T20:54:21.098Z,75.00
2019-03-22T20:56:56.085Z,75.23
2019-03-22T20:59:30.853Z,75.08
2019-03-22T21:02:02.068Z,74.92
2019-03-22T21:04:35.553Z,74.84
2019-03-22T21:07:08.719Z,74.87
2019-03-22T21:09:39.492Z,75.24
2019-03-22T21:12:10.186Z,75.45
2019-03-22T21:14:40.990Z,75.15
2019-03-22T21:17:12.154Z,75.45
2019-03-22T21:19:43.322Z,75.23
2019-03-22T21:22:17.114Z,75.26
2019-03-22T21:24:52.920Z,75.33
2019-03-22T21:27:23.614Z,75.72
2019-03-22T21:29:54.339Z,75.69
2019-03-22T21:32:26.470Z,76.05
2019-03-22T21:34:57.338Z,75.75
2019-03-22T21:37:28.139Z,76.19
2019-03-22T21:39:58.870Z,76.14
2019-03-22T21:42:29.668Z,76.15
2019-03-22T21:45:00.470Z,75.80
2019-03-22T21:47:31.197Z,75.67
2019-03-22T21:50:01.833Z,76.81
2019-03-22T21:52:32.672Z,76.23
2019-03-22T21:55:06.552Z,76.49
2019-03-22T21:57:40.727Z,76.69
2019-03-22T22:00:11.827Z,76.64
2019-03-22T22:02:42.709Z,76.63
2019-03-22T22:05:16.932Z,76.84
2019-03-22T22:07:47.678Z,77.02
2019-03-22T22:10:18.362Z,77.20
2019-03-22T22:12:50.000Z,77.19
2019-03-22T22:15:26.854Z,77.24
2019-03-22T22:17:58.804Z,77.23
2019-03-22T22:20:29.551Z,77.31
2019-03-22T22:23:00.253Z,77.34
2019-03-22T22:25:30.932Z,77.50
2019-03-22T22:28:05.050Z,77.67
2019-03-22T22:30:37.769Z,77.63
2019-03-22T22:33:08.052Z,77.59
2019-03-22T22:35:41.192Z,77.63
2019-03-22T22:38:12.009Z,77.74
2019-03-22T22:40:42.754Z,77.85
2019-03-22T22:43:13.582Z,77.81
2019-03-22T22:45:44.374Z,77.35
2019-03-22T22:48:15.081Z,77.33
2019-03-22T22:50:45.988Z,77.56
2019-03-22T22:53:16.685Z,77.18
2019-03-22T22:55:50.848Z,76.95
2019-03-22T22:58:28.594Z,76.97
2019-03-22T23:00:59.373Z,76.62
2019-03-22T23:03:36.141Z,76.24
2019-03-22T23:06:10.854Z,75.92
2019-03-22T23:08:42.634Z,75.49
2019-03-22T23:11:15.216Z,75.34
2019-03-22T23:14:00.531Z,75.17
2019-03-22T23:16:37.823Z,74.92
2019-03-22T23:19:15.484Z,74.89
2019-03-22T23:21:48.432Z,74.75
2019-03-22T23:25:08.082Z,74.75
2019-03-22T23:27:42.694Z,74.58
2019-03-22T23:30:32.866Z,74.65
2019-03-22T23:36:35.559Z,74.47
2019-03-22T23:39:18.783Z,74.46
2019-03-22T23:41:58.057Z,74.28
2019-03-22T23:44:35.072Z,74.28
2019-03-22T23:47:29.870Z,74.07
2019-03-22T23:50:17.421Z,74.14
2019-03-22T23:52:52.561Z,73.79
2019-03-22T23:55:23.938Z,73.73
2019-03-22T23:57:58.513Z,73.73
